createdAt,value
2018-03-03T00:01:00.614Z,80.57
2018-03-03T00:03:26.980Z,82.75
2018-03-03T00:05:53.346Z,100.70
2018-03-03T00:08:19.815Z,88.75
2018-03-03T00:10:46.191Z,86.55
2018-03-03T00:13:12.542Z,87.75
2018-03-03T00:15:38.940Z,87.47
2018-03-03T00:18:05.310Z,85.78
2018-03-03T00:20:31.671Z,94.13
2018-03-03T00:22:58.786Z,82.40
2018-03-03T00:25:25.903Z,80.20
2018-03-03T00:27:52.273Z,97.00
2018-03-03T00:30:18.644Z,88.68
2018-03-03T00:32:45.824Z,96.32
2018-03-03T00:35:12.915Z,94.07
2018-03-03T00:37:39.275Z,102.25
2018-03-03T00:40:06.412Z,97.00
2018-03-03T00:42:33.519Z,99.07
2018-03-03T00:44:59.912Z,100.87
2018-03-03T00:47:27.045Z,98.20
2018-03-03T00:49:54.153Z,96.70
2018-03-03T00:52:20.512Z,93.45
2018-03-03T00:54:46.882Z,90.57
2018-03-03T00:57:13.313Z,90.65
2018-03-03T00:59:39.690Z,105.72
2018-03-03T01:02:06.061Z,97.45
2018-03-03T01:04:33.173Z,100.45
2018-03-03T01:06:59.528Z,92.57
2018-03-03T01:09:25.907Z,118.30
2018-03-03T01:11:52.286Z,113.50
2018-03-03T01:14:18.648Z,90.72
2018-03-03T01:16:45.766Z,96.95
2018-03-03T01:19:12.171Z,95.50
2018-03-03T01:21:38.527Z,100.45
2018-03-03T01:24:04.895Z,91.53
2018-03-03T01:26:31.267Z,119.25
2018-03-03T01:28:57.607Z,97.00
2018-03-03T01:31:23.969Z,102.12
2018-03-03T01:33:51.100Z,74.72
2018-03-03T01:36:17.457Z,90.57
2018-03-03T01:38:44.587Z,94.47
2018-03-03T01:41:11.683Z,88.90
2018-03-03T01:43:38.052Z,100.82
2018-03-03T01:46:04.431Z,104.40
2018-03-03T01:48:30.810Z,90.38
2018-03-03T01:50:57.230Z,95.68
2018-03-03T01:53:23.583Z,90.90
2018-03-03T01:55:49.942Z,112.72
2018-03-03T01:58:17.169Z,105.65
2018-03-03T02:00:43.540Z,88.10
2018-03-03T02:03:09.926Z,94.15
2018-03-03T02:05:36.280Z,104.20
2018-03-03T02:08:03.386Z,89.32
2018-03-03T02:10:29.720Z,94.30
2018-03-03T02:12:56.113Z,91.28
2018-03-03T02:15:22.488Z,84.60
2018-03-03T02:17:48.846Z,95.28
2018-03-03T02:20:15.937Z,98.87
2018-03-03T02:22:42.298Z,98.12
2018-03-03T02:25:08.657Z,94.85
2018-03-03T02:27:35.784Z,95.18
2018-03-03T02:30:02.157Z,98.25
2018-03-03T02:32:29.254Z,96.85
2018-03-03T02:34:55.613Z,95.60
2018-03-03T02:37:22.740Z,94.82
2018-03-03T02:39:49.122Z,92.68
2018-03-03T02:42:15.494Z,92.93
2018-03-03T02:44:41.850Z,89.85
2018-03-03T02:47:08.213Z,86.57
2018-03-03T02:49:34.563Z,104.90
2018-03-03T02:52:00.934Z,107.43
2018-03-03T02:54:27.306Z,110.43
2018-03-03T02:56:53.683Z,95.65
2018-03-03T02:59:20.035Z,95.07
2018-03-03T03:01:46.399Z,98.75
2018-03-03T03:04:12.751Z,96.00
2018-03-03T03:06:39.131Z,103.32
2018-03-03T03:09:05.548Z,100.93
2018-03-03T03:11:31.922Z,96.70
2018-03-03T03:13:59.051Z,97.45
2018-03-03T03:16:26.142Z,97.00
2018-03-03T03:18:52.514Z,86.37
2018-03-03T03:21:19.629Z,90.72
2018-03-03T03:23:46.047Z,97.47
2018-03-03T03:26:12.421Z,94.60
2018-03-03T03:28:38.783Z,85.10
2018-03-03T03:31:05.189Z,87.97
2018-03-03T03:33:31.557Z,83.80
2018-03-03T03:35:58.653Z,94.87
2018-03-03T03:38:25.002Z,92.22
2018-03-03T03:40:51.362Z,85.43
2018-03-03T03:43:18.464Z,79.22
2018-03-03T03:45:44.819Z,85.50
2018-03-03T03:48:11.177Z,84.70
2018-03-03T03:50:37.542Z,98.87
2018-03-03T03:53:03.917Z,104.53
2018-03-03T03:55:30.362Z,102.20
2018-03-03T03:57:57.470Z,105.70
2018-03-03T04:00:23.856Z,100.32
2018-03-03T04:02:50.233Z,107.22
2018-03-03T04:05:16.627Z,97.68
2018-03-03T04:07:42.975Z,101.22
2018-03-03T04:10:09.338Z,99.72
2018-03-03T04:12:35.691Z,115.07
2018-03-03T04:15:02.058Z,110.22
2018-03-03T04:17:28.407Z,106.05
2018-03-03T04:19:54.786Z,104.65
2018-03-03T04:22:21.884Z,109.72
2018-03-03T04:24:48.285Z,104.15
2018-03-03T04:27:14.676Z,101.47
2018-03-03T04:29:41.045Z,107.82
2018-03-03T04:32:08.184Z,99.30
2018-03-03T04:34:35.287Z,108.07
2018-03-03T04:37:01.802Z,105.97
2018-03-03T04:39:28.212Z,99.15
2018-03-03T04:41:54.569Z,105.18
2018-03-03T04:44:20.974Z,102.38
2018-03-03T04:46:47.358Z,95.20
2018-03-03T04:49:13.835Z,100.18
2018-03-03T04:51:40.190Z,105.43
2018-03-03T04:54:06.576Z,105.97
2018-03-03T04:56:32.970Z,90.47
2018-03-03T04:59:01.410Z,91.00
2018-03-03T05:01:33.834Z,101.45
2018-03-03T05:04:01.956Z,91.72
2018-03-03T05:06:33.119Z,97.45
2018-03-03T05:08:59.514Z,91.37
2018-03-03T05:11:26.646Z,97.18
2018-03-03T05:14:11.042Z,95.22
2018-03-03T05:16:53.907Z,89.62
2018-03-03T05:19:26.472Z,94.03
2018-03-03T05:22:08.940Z,95.75
2018-03-03T05:24:42.206Z,103.65
2018-03-03T05:27:16.035Z,103.75
2018-03-03T05:29:49.128Z,100.65
2018-03-03T05:32:21.430Z,97.60
2018-03-03T05:34:53.774Z,96.28
2018-03-03T05:37:26.362Z,97.47
2018-03-03T05:40:10.506Z,97.07
2018-03-03T05:42:43.020Z,103.75
2018-03-03T05:45:15.578Z,93.10
2018-03-03T05:47:47.930Z,107.15
2018-03-03T05:50:30.211Z,176.05
2018-03-03T05:53:03.414Z,144.32
2018-03-03T05:55:35.566Z,116.85
2018-03-03T05:58:19.391Z,109.03
2018-03-03T06:00:52.715Z,102.03
2018-03-03T06:03:38.850Z,80.85
2018-03-03T06:06:08.048Z,89.45
2018-03-03T06:08:35.357Z,80.93
2018-03-03T06:11:02.478Z,96.12
2018-03-03T06:13:28.884Z,96.07
2018-03-03T06:15:55.278Z,85.97
2018-03-03T06:18:21.622Z,86.47
2018-03-03T06:20:47.986Z,86.37
2018-03-03T06:23:14.346Z,102.80
2018-03-03T06:25:41.489Z,93.85
2018-03-03T06:28:08.617Z,86.32
2018-03-03T06:30:34.978Z,102.68
2018-03-03T06:33:02.128Z,92.32
2018-03-03T06:35:29.221Z,140.02
2018-03-03T06:37:55.607Z,106.10
2018-03-03T06:40:21.962Z,103.47
2018-03-03T06:42:48.335Z,88.28
2018-03-03T06:45:14.687Z,98.30
2018-03-03T06:47:41.986Z,99.00
2018-03-03T06:50:08.362Z,109.20
2018-03-03T06:52:34.724Z,105.03
2018-03-03T06:55:01.838Z,108.32
2018-03-03T06:57:28.236Z,106.45
2018-03-03T06:59:54.633Z,110.57
2018-03-03T07:02:21.720Z,106.82
2018-03-03T07:04:48.070Z,105.10
2018-03-03T07:07:14.430Z,126.85
2018-03-03T07:09:41.582Z,128.32
2018-03-03T07:12:08.728Z,104.78
2018-03-03T07:14:38.902Z,106.00
2018-03-03T07:17:05.343Z,113.90
2018-03-03T07:19:31.740Z,128.20
2018-03-03T07:21:58.840Z,117.20
2018-03-03T07:24:25.205Z,144.68
2018-03-03T07:26:51.618Z,105.55
2018-03-03T07:29:17.988Z,143.95
2018-03-03T07:31:44.351Z,135.73
2018-03-03T07:34:10.721Z,116.40
2018-03-03T07:36:37.849Z,141.35
2018-03-03T07:39:04.293Z,149.15
2018-03-03T07:41:30.687Z,176.30
2018-03-03T07:43:57.168Z,133.10
2018-03-03T07:46:23.523Z,226.02
2018-03-03T07:48:49.964Z,242.00
2018-03-03T07:51:16.398Z,140.98
2018-03-03T07:53:42.757Z,119.45
2018-03-03T07:56:09.131Z,110.30
2018-03-03T07:58:47.467Z,119.70
2018-03-03T08:01:13.859Z,113.35
2018-03-03T08:03:40.354Z,122.90
2018-03-03T08:06:06.770Z,133.60
2018-03-03T08:08:33.204Z,111.80
2018-03-03T08:10:59.590Z,125.20
2018-03-03T08:13:25.955Z,187.57
2018-03-03T08:15:53.057Z,159.37
2018-03-03T08:18:19.426Z,135.63
2018-03-03T08:20:46.533Z,149.12
2018-03-03T08:23:12.915Z,127.32
2018-03-03T08:25:40.046Z,129.05
2018-03-03T08:28:07.169Z,117.03
2018-03-03T08:30:33.573Z,158.55
2018-03-03T08:33:00.031Z,123.62
2018-03-03T08:35:26.399Z,127.97
2018-03-03T08:37:53.519Z,142.37
2018-03-03T08:40:19.889Z,126.20
2018-03-03T08:42:46.259Z,141.95
2018-03-03T08:45:12.616Z,117.28
2018-03-03T08:47:38.954Z,139.88
2018-03-03T08:50:05.551Z,136.05
2018-03-03T08:52:31.951Z,136.45
2018-03-03T08:54:58.351Z,124.05
2018-03-03T08:57:25.454Z,134.80
2018-03-03T08:59:51.812Z,124.75
2018-03-03T09:02:18.209Z,134.63
2018-03-03T09:04:45.292Z,118.32
2018-03-03T09:07:11.655Z,126.50
2018-03-03T09:09:38.776Z,121.05
2018-03-03T09:12:05.158Z,122.28
2018-03-03T09:14:31.528Z,118.43
2018-03-03T09:16:57.890Z,128.18
2018-03-03T09:19:24.255Z,128.87
2018-03-03T09:21:50.614Z,117.95
2018-03-03T09:24:16.993Z,129.40
2018-03-03T09:26:44.104Z,124.05
2018-03-03T09:29:10.481Z,134.48
2018-03-03T09:31:36.852Z,136.52
2018-03-03T09:34:03.327Z,118.30
2018-03-03T09:36:30.488Z,132.23
2018-03-03T09:38:57.609Z,121.70
2018-03-03T09:41:23.969Z,142.83
2018-03-03T09:43:51.075Z,130.98
2018-03-03T09:46:17.474Z,125.57
2018-03-03T09:48:43.892Z,128.32
2018-03-03T09:51:10.334Z,124.33
2018-03-03T09:53:36.727Z,123.03
2018-03-03T09:56:04.759Z,117.90
2018-03-03T09:58:31.134Z,122.37
2018-03-03T10:00:57.550Z,124.03
2018-03-03T10:03:24.810Z,123.33
2018-03-03T10:05:51.258Z,133.90
2018-03-03T10:08:17.675Z,133.27
2018-03-03T10:10:44.063Z,140.90
2018-03-03T10:13:10.419Z,136.80
2018-03-03T10:15:36.831Z,133.17
2018-03-03T10:18:03.219Z,151.87
2018-03-03T10:20:29.580Z,138.10
2018-03-03T10:22:55.955Z,155.93
2018-03-03T10:25:22.330Z,153.83
2018-03-03T10:27:48.695Z,187.32
2018-03-03T10:30:15.051Z,152.00
2018-03-03T10:32:41.430Z,137.80
2018-03-03T10:35:07.859Z,145.02
2018-03-03T10:37:34.257Z,131.87
2018-03-03T10:40:00.662Z,121.80
2018-03-03T10:42:27.035Z,132.95
2018-03-03T10:44:53.394Z,135.23
2018-03-03T10:47:19.753Z,144.93
2018-03-03T10:49:46.137Z,126.43
2018-03-03T10:52:13.279Z,131.27
2018-03-03T10:54:40.375Z,125.87
2018-03-03T10:57:06.771Z,128.57
2018-03-03T10:59:33.874Z,130.45
2018-03-03T11:02:00.237Z,126.07
2018-03-03T11:04:26.604Z,147.15
2018-03-03T11:06:53.029Z,127.15
2018-03-03T11:09:19.426Z,130.95
2018-03-03T11:11:45.823Z,118.35
2018-03-03T11:14:12.227Z,108.87
2018-03-03T11:16:38.659Z,114.10
2018-03-03T11:19:05.026Z,101.73
2018-03-03T11:21:31.430Z,108.63
2018-03-03T11:23:57.855Z,105.23
2018-03-03T11:26:25.994Z,108.53
2018-03-03T11:28:52.399Z,102.97
2018-03-03T11:31:18.802Z,78.00
2018-03-03T11:33:46.057Z,79.10
2018-03-03T11:36:12.430Z,68.03
2018-03-03T11:38:38.786Z,86.97
2018-03-03T11:41:05.887Z,81.77
2018-03-03T11:43:32.373Z,88.13
2018-03-03T11:45:59.543Z,90.33
2018-03-03T11:48:26.632Z,95.53
2018-03-03T11:50:52.998Z,97.60
2018-03-03T11:53:19.363Z,86.10
2018-03-03T11:55:45.764Z,89.33
2018-03-03T11:58:12.880Z,79.20
2018-03-03T12:00:39.267Z,107.30
2018-03-03T12:03:05.653Z,88.10
2018-03-03T12:05:32.021Z,107.23
2018-03-03T12:07:59.136Z,99.63
2018-03-03T12:10:25.539Z,95.23
2018-03-03T12:12:51.930Z,98.70
2018-03-03T12:15:19.055Z,95.30
2018-03-03T12:17:45.421Z,87.87
2018-03-03T12:20:11.787Z,122.63
2018-03-03T12:22:38.164Z,105.70
2018-03-03T12:25:04.593Z,127.63
2018-03-03T12:27:31.040Z,89.47
2018-03-03T12:29:58.211Z,91.37
2018-03-03T12:32:24.586Z,154.47
2018-03-03T12:34:50.957Z,84.70
2018-03-03T12:37:17.346Z,86.37
2018-03-03T12:39:43.721Z,88.23
2018-03-03T12:42:10.092Z,77.37
2018-03-03T12:44:36.430Z,83.83
2018-03-03T12:47:02.820Z,98.50
2018-03-03T12:49:29.183Z,87.77
2018-03-03T12:51:55.577Z,117.00
2018-03-03T12:54:21.931Z,80.10
2018-03-03T12:56:48.340Z,109.87
2018-03-03T12:59:15.462Z,82.70
2018-03-03T13:01:41.827Z,104.50
2018-03-03T13:04:08.268Z,94.47
2018-03-03T13:06:34.624Z,86.33
2018-03-03T13:09:01.006Z,85.03
2018-03-03T13:11:28.323Z,89.32
2018-03-03T13:13:54.732Z,74.87
2018-03-03T13:16:21.135Z,83.12
2018-03-03T13:18:47.497Z,91.63
2018-03-03T13:21:13.870Z,75.18
2018-03-03T13:23:40.238Z,79.28
2018-03-03T13:26:06.651Z,74.75
2018-03-03T13:28:33.052Z,79.32
2018-03-03T13:30:59.476Z,84.20
2018-03-03T13:33:25.838Z,70.37
2018-03-03T13:35:52.947Z,67.40
2018-03-03T13:38:19.314Z,68.75
2018-03-03T13:40:46.471Z,75.93
2018-03-03T13:43:13.570Z,73.47
2018-03-03T13:45:39.942Z,73.07
2018-03-03T13:48:06.305Z,73.03
2018-03-03T13:50:32.698Z,67.10
2018-03-03T13:52:59.072Z,79.43
2018-03-03T13:55:25.445Z,77.68
2018-03-03T13:57:51.819Z,70.43
2018-03-03T14:00:18.941Z,74.03
2018-03-03T14:02:45.308Z,83.25
2018-03-03T14:05:11.686Z,72.67
2018-03-03T14:07:38.051Z,77.18
2018-03-03T14:10:05.155Z,76.78
2018-03-03T14:12:31.533Z,76.78
2018-03-03T14:14:58.652Z,80.77
2018-03-03T14:17:25.038Z,62.83
2018-03-03T14:19:51.423Z,68.90
2018-03-03T14:22:17.796Z,62.97
2018-03-03T14:24:44.166Z,68.80
2018-03-03T14:27:10.553Z,63.27
2018-03-03T14:29:37.651Z,63.17
2018-03-03T14:32:05.106Z,67.20
2018-03-03T14:34:44.908Z,81.83
2018-03-03T14:37:24.555Z,70.62
2018-03-03T14:39:50.927Z,65.62
2018-03-03T14:42:17.311Z,67.78
2018-03-03T14:44:43.709Z,77.12
2018-03-03T14:47:10.118Z,79.03
2018-03-03T14:49:36.717Z,71.53
2018-03-03T14:52:03.151Z,81.53
2018-03-03T14:54:29.524Z,72.07
2018-03-03T14:56:55.974Z,81.07
2018-03-03T14:59:23.086Z,89.65
2018-03-03T15:01:49.501Z,210.98
2018-03-03T15:04:15.888Z,277.77
2018-03-03T15:06:42.254Z,87.97
2018-03-03T15:09:08.623Z,69.43
2018-03-03T15:11:34.987Z,88.45
2018-03-03T15:14:01.351Z,64.90
2018-03-03T15:16:27.718Z,67.37
2018-03-03T15:18:54.118Z,74.62
2018-03-03T15:23:52.692Z,76.65
2018-03-03T15:26:19.822Z,87.80
2018-03-03T15:28:47.685Z,80.05
2018-03-03T15:31:14.077Z,77.45
2018-03-03T15:33:40.451Z,81.90
2018-03-03T15:36:06.821Z,72.30
2018-03-03T15:38:33.189Z,85.15
2018-03-03T15:40:59.617Z,75.25
2018-03-03T15:43:26.044Z,70.25
2018-03-03T15:45:52.397Z,77.65
2018-03-03T15:48:18.780Z,80.90
2018-03-03T15:50:45.882Z,90.28
2018-03-03T15:53:12.446Z,69.93
2018-03-03T15:55:38.882Z,77.82
2018-03-03T15:58:05.982Z,58.53
2018-03-03T16:00:32.354Z,65.65
2018-03-03T16:02:59.480Z,68.32
2018-03-03T16:05:25.843Z,68.97
2018-03-03T16:07:52.967Z,67.12
2018-03-03T16:10:19.327Z,67.90
2018-03-03T16:12:46.443Z,59.92
2018-03-03T16:15:12.821Z,70.60
2018-03-03T16:17:39.218Z,74.22
2018-03-03T16:20:05.596Z,63.95
2018-03-03T16:22:31.971Z,77.32
2018-03-03T16:24:58.379Z,63.97
2018-03-03T16:27:24.812Z,66.43
2018-03-03T16:29:51.145Z,68.03
2018-03-03T16:32:17.507Z,77.93
2018-03-03T16:34:43.875Z,81.82
2018-03-03T16:37:10.286Z,58.87
2018-03-03T16:39:37.381Z,74.40
2018-03-03T16:42:03.767Z,72.72
2018-03-03T16:44:30.903Z,69.43
2018-03-03T16:46:57.271Z,67.68
2018-03-03T16:49:23.678Z,61.90
2018-03-03T16:51:50.804Z,69.43
2018-03-03T16:54:17.170Z,68.40
2018-03-03T16:56:43.536Z,63.80
2018-03-03T16:59:09.987Z,61.75
2018-03-03T17:01:36.342Z,70.93
2018-03-03T17:04:03.454Z,73.80
2018-03-03T17:06:29.828Z,65.25
2018-03-03T17:08:56.189Z,58.70
2018-03-03T17:11:22.656Z,72.32
2018-03-03T17:13:49.089Z,65.25
2018-03-03T17:16:15.466Z,63.90
2018-03-03T17:18:42.576Z,73.60
2018-03-03T17:21:08.949Z,69.40
2018-03-03T17:23:36.038Z,68.72
2018-03-03T17:26:02.431Z,100.22
2018-03-03T17:28:29.687Z,101.28
2018-03-03T17:30:56.083Z,93.55
2018-03-03T17:33:22.442Z,103.05
2018-03-03T17:35:49.547Z,165.27
2018-03-03T17:38:15.895Z,87.93
2018-03-03T17:40:42.270Z,80.22
2018-03-03T17:43:08.638Z,71.70
2018-03-03T17:45:35.022Z,69.07
2018-03-03T17:48:01.435Z,74.80
2018-03-03T17:50:28.555Z,65.18
2018-03-03T17:52:54.997Z,62.05
2018-03-03T17:55:21.453Z,66.05
2018-03-03T17:57:48.602Z,62.42
2018-03-03T18:00:15.712Z,79.18
2018-03-03T18:02:42.112Z,61.90
2018-03-03T18:05:08.578Z,66.45
2018-03-03T18:07:35.004Z,62.97
2018-03-03T18:10:01.490Z,71.05
2018-03-03T18:12:27.856Z,72.32
2018-03-03T18:14:54.903Z,75.70
2018-03-03T18:17:21.262Z,71.80
2018-03-03T18:19:47.627Z,82.95
2018-03-03T18:22:14.019Z,74.12
2018-03-03T18:24:40.421Z,63.20
2018-03-03T18:27:06.884Z,70.05
2018-03-03T18:29:33.295Z,74.87
2018-03-03T18:31:59.667Z,76.80
2018-03-03T18:34:26.090Z,90.87
2018-03-03T18:36:52.543Z,102.03
2018-03-03T18:39:18.906Z,98.25
2018-03-03T18:41:46.030Z,106.53
2018-03-03T18:44:12.416Z,77.40
2018-03-03T18:46:39.329Z,73.25
2018-03-03T18:49:05.690Z,110.07
2018-03-03T18:51:32.052Z,85.25
2018-03-03T18:53:58.478Z,69.05
2018-03-03T18:56:24.855Z,97.65
2018-03-03T18:58:51.384Z,160.55
2018-03-03T19:01:17.784Z,145.77
2018-03-03T19:03:44.173Z,133.48
2018-03-03T19:06:10.599Z,268.37
2018-03-03T19:08:36.998Z,305.37
2018-03-03T19:11:04.099Z,154.82
2018-03-03T19:13:31.464Z,157.75
2018-03-03T19:15:57.874Z,445.12
2018-03-03T19:18:24.261Z,165.93
2018-03-03T19:20:50.692Z,146.43
2018-03-03T19:23:17.844Z,185.40
2018-03-03T19:25:44.238Z,139.82
2018-03-03T19:28:10.619Z,82.47
2018-03-03T19:30:37.736Z,102.05
2018-03-03T19:33:04.135Z,103.20
2018-03-03T19:35:30.518Z,110.40
2018-03-03T19:37:56.912Z,111.18
2018-03-03T19:40:23.315Z,85.20
2018-03-03T19:42:49.680Z,77.72
2018-03-03T19:45:16.041Z,125.15
2018-03-03T19:47:42.414Z,122.13
2018-03-03T19:50:08.811Z,100.32
2018-03-03T19:52:35.918Z,92.07
2018-03-03T19:55:02.290Z,78.93
2018-03-03T19:57:28.651Z,96.25
2018-03-03T19:59:55.172Z,79.20
2018-03-03T20:02:22.284Z,80.95
2018-03-03T20:04:48.642Z,73.32
2018-03-03T20:07:15.766Z,77.07
2018-03-03T20:09:42.115Z,72.90
2018-03-03T20:12:08.515Z,76.15
2018-03-03T20:14:34.907Z,78.60
2018-03-03T20:17:02.029Z,74.75
2018-03-03T20:19:29.189Z,76.40
2018-03-03T20:21:56.387Z,78.25
2018-03-03T20:24:24.250Z,96.03
2018-03-03T20:26:50.659Z,110.78
2018-03-03T20:29:17.072Z,89.75
2018-03-03T20:31:43.471Z,78.32
2018-03-03T20:34:09.885Z,91.30
2018-03-03T20:36:36.336Z,82.62
2018-03-03T20:39:02.846Z,81.63
2018-03-03T20:41:29.244Z,86.53
2018-03-03T20:43:55.602Z,95.50
2018-03-03T20:46:22.047Z,91.50
2018-03-03T20:48:48.448Z,97.78
2018-03-03T20:51:14.805Z,83.32
2018-03-03T20:53:41.162Z,93.03
2018-03-03T20:56:07.560Z,88.50
2018-03-03T20:58:33.968Z,93.20
2018-03-03T21:01:01.076Z,84.35
2018-03-03T21:03:27.556Z,87.93
2018-03-03T21:05:53.925Z,76.60
2018-03-03T21:08:20.274Z,79.10
2018-03-03T21:10:46.682Z,77.75
2018-03-03T21:13:13.071Z,84.43
2018-03-03T21:15:40.191Z,94.82
2018-03-03T21:18:06.583Z,80.00
2018-03-03T21:20:32.951Z,76.90
2018-03-03T21:22:59.324Z,84.87
2018-03-03T21:25:26.440Z,94.57
2018-03-03T21:27:52.791Z,95.55
2018-03-03T21:30:19.894Z,111.65
2018-03-03T21:32:46.304Z,94.82
2018-03-03T21:35:12.685Z,92.25
2018-03-03T21:37:39.125Z,86.78
2018-03-03T21:40:05.502Z,81.15
2018-03-03T21:42:31.962Z,87.50
2018-03-03T21:44:58.330Z,85.45
2018-03-03T21:47:25.455Z,150.15
2018-03-03T21:49:51.833Z,92.72
2018-03-03T21:52:18.270Z,98.65
2018-03-03T21:54:44.638Z,94.45
2018-03-03T21:57:10.991Z,98.10
2018-03-03T21:59:37.353Z,93.05
2018-03-03T22:02:03.762Z,85.55
2018-03-03T22:04:30.880Z,89.80
2018-03-03T22:06:57.354Z,89.90
2018-03-03T22:09:23.744Z,84.40
2018-03-03T22:11:50.143Z,90.65
2018-03-03T22:14:16.506Z,102.00
2018-03-03T22:16:42.847Z,87.45
2018-03-03T22:19:09.199Z,96.03
2018-03-03T22:21:36.316Z,102.55
2018-03-03T22:24:02.678Z,93.05
2018-03-03T22:26:29.030Z,94.30
2018-03-03T22:28:56.137Z,85.20
2018-03-03T22:31:22.518Z,92.40
2018-03-03T22:33:48.893Z,81.57
2018-03-03T22:36:15.258Z,81.40
2018-03-03T22:38:42.435Z,72.78
2018-03-03T22:41:08.798Z,85.07
2018-03-03T22:43:35.153Z,87.97
2018-03-03T22:46:03.021Z,91.45
2018-03-03T22:48:29.383Z,96.05
2018-03-03T22:50:55.754Z,85.65
2018-03-03T22:53:22.114Z,84.93
2018-03-03T22:55:48.473Z,82.22
2018-03-03T22:58:14.837Z,97.72
2018-03-03T23:00:41.261Z,111.80
2018-03-03T23:03:07.611Z,91.32
2018-03-03T23:05:34.006Z,107.90
2018-03-03T23:08:00.361Z,95.30
2018-03-03T23:10:26.722Z,95.35
2018-03-03T23:12:53.081Z,92.20
2018-03-03T23:15:20.199Z,86.18
2018-03-03T23:17:46.575Z,90.75
2018-03-03T23:20:13.747Z,96.68
2018-03-03T23:22:40.848Z,90.32
2018-03-03T23:25:07.967Z,106.97
2018-03-03T23:27:35.072Z,91.10
2018-03-03T23:30:01.436Z,87.35
2018-03-03T23:32:27.823Z,89.57
2018-03-03T23:34:54.907Z,92.72
2018-03-03T23:37:21.243Z,103.50
2018-03-03T23:39:47.603Z,96.97
2018-03-03T23:42:13.980Z,94.53
2018-03-03T23:44:41.067Z,97.60
2018-03-03T23:47:07.439Z,102.25
2018-03-03T23:49:34.552Z,102.28
2018-03-03T23:52:00.947Z,85.25
2018-03-03T23:54:27.292Z,98.68
2018-03-03T23:56:53.644Z,91.72
2018-03-03T23:59:20.156Z,101.28
